Time;durP1;ratioP1;P1;durP2;ratioP2;P2;SDS_P1;SDS_P2;PMS_P1;PMS_P2;Temp;Humidity;BMP_temperature;BMP_pressure;BME280_temperature;BME280_humidity;BME280_pressure;Samples;Min_cycle;Max_cycle;Signal;HPM_P1;HPM_P2
2022/07/27 00:00:31;;;;;;;9.00;8.05;;;31.10;88.50;;;;;;5137051;27;20464;-72
2022/07/27 00:02:58;;;;;;;12.35;8.00;;;31.20;88.80;;;;;;5172415;27;20034;-72
2022/07/27 00:05:26;;;;;;;12.15;8.52;;;31.10;88.60;;;;;;5153905;27;20391;-72
2022/07/27 00:07:55;;;;;;;11.23;9.02;;;31.00;87.80;;;;;;5153825;27;20046;-73
2022/07/27 00:10:22;;;;;;;12.50;8.18;;;31.00;86.90;;;;;;5129482;27;20607;-72
2022/07/27 00:12:50;;;;;;;9.93;7.80;;;30.90;86.60;;;;;;5142103;27;20446;-72
2022/07/27 00:15:18;;;;;;;12.70;8.07;;;30.90;86.90;;;;;;5125020;27;20115;-71
2022/07/27 00:17:46;;;;;;;11.23;8.50;;;30.90;87.60;;;;;;5120454;27;20165;-72
2022/07/27 00:20:14;;;;;;;11.73;8.38;;;30.90;88.50;;;;;;5120479;27;20919;-72
2022/07/27 00:22:42;;;;;;;14.30;8.98;;;30.90;88.90;;;;;;5141603;27;20045;-71
2022/07/27 00:25:10;;;;;;;13.00;8.70;;;30.80;89.10;;;;;;5141064;27;20054;-72
2022/07/27 00:27:38;;;;;;;11.20;8.13;;;30.80;89.20;;;;;;5176979;27;20054;-71
2022/07/27 00:30:06;;;;;;;15.35;10.18;;;30.80;89.20;;;;;;5136517;27;20134;-72
2022/07/27 00:32:33;;;;;;;13.50;10.27;;;30.80;89.20;;;;;;5137275;27;20043;-72
2022/07/27 00:35:01;;;;;;;10.48;9.32;;;30.70;89.40;;;;;;5120057;27;20774;-72
2022/07/27 00:37:29;;;;;;;12.18;9.80;;;30.80;89.80;;;;;;5137507;27;20074;-71
2022/07/27 00:39:56;;;;;;;13.57;10.00;;;30.70;90.00;;;;;;5119786;27;20115;-72
2022/07/27 00:42:27;;;;;;;10.77;9.27;;;30.60;90.00;;;;;;5137207;27;20134;-72
2022/07/27 00:44:54;;;;;;;12.40;9.48;;;30.60;90.10;;;;;;5137446;27;20054;-72
2022/07/27 00:47:23;;;;;;;13.23;10.85;;;30.50;90.10;;;;;;5137131;27;20054;-72
2022/07/27 00:49:51;;;;;;;12.57;10.65;;;30.50;90.10;;;;;;5155219;27;20054;-72
2022/07/27 00:52:21;;;;;;;14.98;10.32;;;30.50;90.10;;;;;;5155294;27;20576;-72
2022/07/27 00:54:49;;;;;;;12.77;10.68;;;30.50;90.30;;;;;;5167228;27;20049;-72
2022/07/27 00:57:17;;;;;;;17.92;11.70;;;30.50;90.40;;;;;;5119875;27;20053;-72
2022/07/27 00:59:44;;;;;;;15.98;13.68;;;30.50;90.40;;;;;;5137050;27;20046;-72
2022/07/27 01:02:12;;;;;;;17.65;12.98;;;30.50;90.40;;;;;;5155091;27;20046;-72
2022/07/27 01:04:40;;;;;;;17.77;12.23;;;30.50;90.40;;;;;;5137258;27;20060;-72
2022/07/27 01:07:08;;;;;;;12.75;11.20;;;30.50;90.40;;;;;;5136747;27;20126;-72
2022/07/27 01:12:24;;;;;;;13.48;10.43;;;30.50;90.40;;;;;;5155164;27;20042;-72
2022/07/27 01:14:52;;;;;;;12.35;11.13;;;30.50;90.30;;;;;;5154837;27;20038;-72
2022/07/27 01:17:21;;;;;;;12.52;10.00;;;30.50;90.00;;;;;;5136634;27;20043;-72
2022/07/27 01:19:49;;;;;;;15.40;10.88;;;30.50;90.00;;;;;;5119254;27;20047;-72
2022/07/27 01:22:17;;;;;;;18.27;12.70;;;30.50;90.10;;;;;;5136242;27;20392;-72
2022/07/27 01:24:44;;;;;;;12.23;10.88;;;30.50;90.00;;;;;;5119252;27;20043;-72
2022/07/27 01:27:12;;;;;;;15.10;10.48;;;30.40;90.00;;;;;;5153472;27;20050;-72
2022/07/27 01:29:40;;;;;;;11.77;9.75;;;30.40;90.00;;;;;;5136282;27;20039;-72
2022/07/27 01:32:09;;;;;;;12.43;9.80;;;30.40;89.90;;;;;;5136420;27;20125;-72
2022/07/27 01:34:37;;;;;;;14.25;10.75;;;30.40;90.00;;;;;;5154408;27;20070;-72
2022/07/27 01:37:05;;;;;;;12.85;10.63;;;30.40;90.00;;;;;;5119468;27;20134;-72
2022/07/27 01:39:33;;;;;;;12.90;10.30;;;30.30;89.90;;;;;;5101197;27;20826;-72
2022/07/27 01:42:01;;;;;;;13.93;10.60;;;30.20;90.00;;;;;;5118655;27;20373;-72
2022/07/27 01:44:28;;;;;;;13.43;9.93;;;30.20;90.20;;;;;;5154178;27;20039;-72
2022/07/27 01:46:56;;;;;;;14.65;11.32;;;30.20;90.50;;;;;;5135766;27;20493;-72
2022/07/27 01:49:23;;;;;;;17.83;10.45;;;30.10;91.00;;;;;;5154204;27;20138;-72
2022/07/27 01:51:51;;;;;;;14.88;11.50;;;29.90;91.20;;;;;;5134947;27;20046;-72
2022/07/27 01:54:21;;;;;;;15.85;11.30;;;29.90;91.80;;;;;;5157256;27;20563;-72
2022/07/27 01:56:50;;;;;;;13.48;11.70;;;29.90;92.10;;;;;;5139270;27;20056;-72
2022/07/27 01:59:17;;;;;;;20.90;11.60;;;29.90;92.40;;;;;;5122169;27;20167;-72
2022/07/27 02:01:46;;;;;;;15.10;11.15;;;29.90;92.80;;;;;;5138768;27;20042;-72
2022/07/27 02:04:17;;;;;;;17.92;10.70;;;29.90;93.30;;;;;;5139224;27;20137;-72
2022/07/27 02:06:44;;;;;;;14.25;10.35;;;29.80;93.60;;;;;;5139260;27;20149;-72
2022/07/27 02:09:13;;;;;;;14.40;11.80;;;29.70;94.10;;;;;;5155960;27;20103;-72
2022/07/27 02:14:29;;;;;;;15.10;10.77;;;29.70;94.80;;;;;;5174550;27;20043;-72
2022/07/27 02:16:57;;;;;;;17.15;11.10;;;29.70;95.10;;;;;;5156067;27;20407;-72
2022/07/27 02:19:27;;;;;;;19.88;13.00;;;29.70;95.40;;;;;;5138964;27;20038;-72
2022/07/27 02:21:54;;;;;;;19.17;12.15;;;29.70;95.70;;;;;;5138662;27;20042;-72
2022/07/27 02:24:22;;;;;;;21.23;14.15;;;29.70;96.30;;;;;;5121896;27;20042;-72
2022/07/27 02:26:50;;;;;;;16.75;13.07;;;29.60;97.00;;;;;;5138687;27;20058;-72
2022/07/27 02:29:18;;;;;;;17.88;14.27;;;29.60;97.20;;;;;;5138316;27;20046;-72
2022/07/27 02:31:45;;;;;;;16.42;13.38;;;29.50;97.50;;;;;;5121555;27;20050;-72
2022/07/27 02:34:13;;;;;;;16.23;13.57;;;29.40;97.80;;;;;;5137977;27;20198;-72
2022/07/27 02:36:52;;;;;;;15.93;12.32;;;29.40;98.20;;;;;;5138606;27;20482;-72
2022/07/27 02:39:25;;;;;;;16.40;12.43;;;29.40;98.40;;;;;;5135017;27;20054;-72
2022/07/27 02:41:53;;;;;;;15.90;13.30;;;29.40;98.50;;;;;;5134823;27;20145;-72
2022/07/27 02:44:21;;;;;;;18.75;12.57;;;29.40;98.40;;;;;;5151989;27;20083;-72
2022/07/27 02:46:48;;;;;;;14.40;12.85;;;29.40;98.20;;;;;;5153215;27;20125;-72
2022/07/27 02:49:16;;;;;;;16.20;12.75;;;29.40;98.20;;;;;;5149407;27;20043;-72
2022/07/27 02:51:43;;;;;;;18.08;13.38;;;29.40;98.20;;;;;;5134500;27;20133;-72
2022/07/27 02:54:11;;;;;;;16.60;12.18;;;29.50;98.30;;;;;;5117124;27;20049;-72
2022/07/27 02:56:38;;;;;;;17.88;11.27;;;29.40;97.80;;;;;;5134806;27;20066;-72
2022/07/27 02:59:06;;;;;;;13.20;10.98;;;29.50;96.90;;;;;;5134388;27;20046;-72
2022/07/27 03:01:33;;;;;;;14.65;11.40;;;29.50;96.50;;;;;;5141376;27;20074;-72
2022/07/27 03:04:01;;;;;;;13.77;11.35;;;29.50;95.90;;;;;;5113723;27;20055;-72
2022/07/27 03:06:31;;;;;;;16.77;12.50;;;29.50;95.50;;;;;;5113472;27;20204;-72
2022/07/27 03:08:58;;;;;;;16.90;11.68;;;29.50;95.20;;;;;;5130708;27;20039;-72
2022/07/27 03:11:26;;;;;;;14.05;11.40;;;29.50;95.20;;;;;;5113390;27;20047;-72
2022/07/27 03:13:55;;;;;;;15.13;12.43;;;29.50;95.50;;;;;;5131678;27;20035;-72
2022/07/27 03:16:36;;;;;;;14.20;12.02;;;29.50;96.10;;;;;;5120106;27;20775;-72
2022/07/27 03:19:05;;;;;;;21.10;12.95;;;29.50;96.40;;;;;;5130255;27;20039;-72
2022/07/27 03:21:32;;;;;;;13.88;12.40;;;29.50;96.40;;;;;;5130547;27;20442;-72
2022/07/27 03:24:00;;;;;;;13.13;11.27;;;29.40;96.50;;;;;;5138675;27;20035;-72
2022/07/27 03:26:29;;;;;;;14.35;11.95;;;29.40;96.80;;;;;;5115955;27;20058;-72
2022/07/27 03:28:57;;;;;;;14.52;12.35;;;29.40;97.30;;;;;;5130507;27;20094;-72
2022/07/27 03:31:24;;;;;;;16.52;12.32;;;29.40;97.70;;;;;;5137624;27;20496;-72
2022/07/27 03:33:52;;;;;;;20.35;15.07;;;29.30;98.10;;;;;;5134121;27;20065;-72
2022/07/27 03:36:20;;;;;;;20.48;13.40;;;29.40;98.40;;;;;;5150921;27;20077;-72
2022/07/27 03:38:47;;;;;;;22.73;16.40;;;29.30;98.60;;;;;;5158499;27;20058;-72
2022/07/27 03:41:15;;;;;;;23.08;16.02;;;29.30;98.90;;;;;;5153414;27;20046;-72
2022/07/27 03:43:43;;;;;;;26.90;15.82;;;29.20;99.50;;;;;;5132171;27;20047;-72
2022/07/27 03:46:11;;;;;;;20.23;14.18;;;29.10;99.80;;;;;;5150760;27;20091;-72
2022/07/27 03:48:39;;;;;;;23.65;14.15;;;29.00;99.90;;;;;;5151903;27;20100;-72
2022/07/27 03:51:07;;;;;;;19.90;14.15;;;29.00;99.90;;;;;;5133088;27;20118;-72
2022/07/27 03:53:34;;;;;;;19.70;14.50;;;29.00;99.90;;;;;;5133626;27;20129;-72
2022/07/27 03:56:02;;;;;;;19.00;14.63;;;29.00;99.90;;;;;;5116055;27;20428;-72
2022/07/27 03:58:30;;;;;;;19.70;13.15;;;28.90;99.90;;;;;;5133329;27;20458;-72
2022/07/27 04:00:57;;;;;;;19.52;13.90;;;29.00;99.90;;;;;;5133511;27;20445;-72
2022/07/27 04:03:25;;;;;;;17.35;14.05;;;29.00;99.90;;;;;;5133633;27;20038;-72
2022/07/27 04:05:53;;;;;;;16.35;12.40;;;29.00;99.90;;;;;;5133477;27;20049;-72
2022/07/27 04:08:20;;;;;;;14.60;11.60;;;29.00;99.90;;;;;;5116816;27;20065;-72
2022/07/27 04:10:48;;;;;;;19.48;12.73;;;29.00;99.90;;;;;;5133421;27;20090;-72
2022/07/27 04:13:17;;;;;;;16.08;11.50;;;29.00;99.90;;;;;;5133174;27;20047;-72
2022/07/27 04:15:44;;;;;;;17.05;11.30;;;29.00;99.90;;;;;;5151658;27;20077;-72
2022/07/27 04:18:12;;;;;;;17.00;12.20;;;29.00;99.90;;;;;;5133285;27;20039;-72
2022/07/27 04:20:39;;;;;;;22.27;11.70;;;29.00;99.90;;;;;;5133347;27;20095;-72
2022/07/27 04:23:07;;;;;;;15.07;11.43;;;29.10;99.90;;;;;;5116244;27;20035;-73
2022/07/27 04:25:35;;;;;;;18.05;11.93;;;29.10;99.90;;;;;;5133194;27;20050;-72
2022/07/27 04:28:02;;;;;;;15.38;10.95;;;29.20;99.90;;;;;;5116124;27;20141;-72
2022/07/27 04:30:30;;;;;;;17.15;12.57;;;29.30;99.90;;;;;;5133394;27;20141;-72
2022/07/27 04:32:58;;;;;;;23.23;14.18;;;29.40;99.90;;;;;;5099452;27;20165;-73
2022/07/27 04:35:25;;;;;;;17.92;12.48;;;29.50;99.90;;;;;;5133206;27;20043;-71
2022/07/27 04:37:53;;;;;;;19.70;13.60;;;29.60;99.90;;;;;;5115858;27;20508;-71
2022/07/27 04:40:21;;;;;;;16.20;13.55;;;29.80;99.90;;;;;;5150557;27;20138;-72
2022/07/27 04:42:49;;;;;;;21.55;14.00;;;29.80;99.90;;;;;;5153294;27;20034;-72
2022/07/27 04:45:16;;;;;;;19.42;13.77;;;29.90;99.90;;;;;;5172422;27;20130;-72
2022/07/27 04:47:44;;;;;;;15.27;13.05;;;30.00;99.90;;;;;;5153590;27;20042;-73
2022/07/27 04:50:11;;;;;;;15.98;14.00;;;30.10;99.90;;;;;;5136178;27;20088;-71
2022/07/27 04:52:39;;;;;;;15.13;13.32;;;30.20;99.90;;;;;;5172416;27;20039;-71
2022/07/27 04:55:07;;;;;;;14.98;12.98;;;30.30;99.90;;;;;;5136612;27;20087;-71
2022/07/27 04:57:35;;;;;;;19.05;13.25;;;30.40;99.70;;;;;;5172175;27;20091;-71
2022/07/27 05:00:04;;;;;;;15.88;11.73;;;30.40;99.70;;;;;;5153400;27;20106;-71
2022/07/27 05:02:32;;;;;;;14.18;11.18;;;30.50;99.40;;;;;;5175667;27;20122;-71
2022/07/27 05:04:59;;;;;;;12.73;10.80;;;30.60;99.30;;;;;;5157063;27;20090;-71
2022/07/27 05:07:27;;;;;;;12.95;10.63;;;30.70;99.20;;;;;;5157167;27;20034;-71
2022/07/27 05:09:54;;;;;;;12.18;10.65;;;30.70;99.10;;;;;;5154252;27;20502;-72
2022/07/27 05:12:22;;;;;;;11.93;9.90;;;30.80;99.00;;;;;;5136547;27;20042;-72
2022/07/27 05:14:50;;;;;;;12.07;10.20;;;30.90;99.00;;;;;;5154971;27;20111;-71
2022/07/27 05:17:18;;;;;;;16.98;11.15;;;30.90;99.00;;;;;;5154992;27;20571;-71
2022/07/27 05:19:46;;;;;;;13.00;9.95;;;30.90;98.90;;;;;;5136206;27;20043;-71
2022/07/27 05:22:13;;;;;;;11.80;10.07;;;31.10;99.10;;;;;;5136333;27;20453;-71
2022/07/27 05:24:41;;;;;;;12.35;10.23;;;31.20;98.80;;;;;;5119339;27;20078;-71
2022/07/27 05:27:09;;;;;;;12.20;10.43;;;31.40;98.50;;;;;;5136366;27;20770;-71
2022/07/27 05:29:37;;;;;;;12.25;8.70;;;31.50;98.20;;;;;;5136305;27;20134;-71
2022/07/27 05:32:05;;;;;;;12.02;9.30;;;31.70;97.90;;;;;;5136062;27;20074;-72
2022/07/27 05:34:33;;;;;;;10.73;9.20;;;31.80;96.90;;;;;;5119794;27;20511;-71
2022/07/27 05:37:01;;;;;;;12.25;8.55;;;31.90;95.60;;;;;;5136219;27;20038;-71
2022/07/27 05:39:28;;;;;;;17.15;11.15;;;32.00;95.30;;;;;;5118745;27;20438;-71
2022/07/27 05:41:56;;;;;;;19.08;10.68;;;32.10;95.20;;;;;;5154160;27;20046;-72
2022/07/27 05:44:24;;;;;;;13.88;9.93;;;32.10;95.40;;;;;;5154540;27;20050;-71
2022/07/27 05:46:51;;;;;;;17.45;11.18;;;32.30;95.40;;;;;;5135878;27;20095;-71
2022/07/27 05:49:20;;;;;;;13.02;9.93;;;32.40;95.40;;;;;;5119340;27;20050;-71
2022/07/27 05:51:48;;;;;;;14.85;10.10;;;32.50;94.80;;;;;;5135768;27;20080;-71
2022/07/27 05:54:15;;;;;;;11.18;9.05;;;32.60;94.10;;;;;;5136155;27;20050;-71
2022/07/27 05:56:43;;;;;;;12.05;9.30;;;32.70;92.70;;;;;;5135371;27;20137;-71
2022/07/27 05:59:11;;;;;;;11.88;9.68;;;32.70;92.00;;;;;;5118510;27;20123;-72
2022/07/27 06:01:39;;;;;;;12.25;9.13;;;32.80;91.60;;;;;;5118868;27;20038;-71
2022/07/27 06:04:06;;;;;;;13.15;10.13;;;32.90;91.20;;;;;;5154028;27;20057;-71
2022/07/27 06:09:20;;;;;;;10.30;8.77;;;33.10;91.80;;;;;;5135495;27;20158;-71
2022/07/27 06:11:47;;;;;;;11.02;9.10;;;33.30;91.80;;;;;;5153685;27;20039;-71
2022/07/27 06:14:15;;;;;;;10.55;8.40;;;33.40;91.30;;;;;;5134645;27;20143;-72
2022/07/27 06:16:42;;;;;;;10.73;9.10;;;33.40;90.50;;;;;;5101642;27;20042;-72
2022/07/27 06:19:10;;;;;;;10.85;9.23;;;33.50;90.30;;;;;;5135467;27;20035;-72
2022/07/27 06:21:38;;;;;;;12.95;8.93;;;33.50;89.50;;;;;;5135146;27;20043;-72
2022/07/27 06:24:06;;;;;;;11.95;9.32;;;33.50;87.20;;;;;;5135012;27;20047;-72
2022/07/27 06:26:33;;;;;;;11.27;8.73;;;33.40;86.70;;;;;;5134962;27;20043;-72
2022/07/27 06:29:01;;;;;;;9.80;8.27;;;33.50;86.40;;;;;;5172763;27;20522;-71
2022/07/27 06:31:29;;;;;;;10.65;8.75;;;33.50;83.40;;;;;;5174144;27;20053;-72
2022/07/27 06:33:57;;;;;;;10.55;9.18;;;33.60;82.30;;;;;;5121430;27;20053;-72
2022/07/27 06:36:25;;;;;;;13.57;10.35;;;33.70;81.30;;;;;;5120461;27;20444;-72
2022/07/27 06:38:53;;;;;;;12.60;10.07;;;33.80;81.10;;;;;;5126420;27;20055;-72
2022/07/27 06:41:20;;;;;;;10.30;8.73;;;34.00;82.30;;;;;;5154106;27;20034;-71
2022/07/27 06:43:48;;;;;;;10.40;8.30;;;33.90;81.30;;;;;;5132816;27;20026;-71
2022/07/27 06:46:16;;;;;;;13.45;9.07;;;34.00;81.50;;;;;;5126577;27;20441;-71
2022/07/27 06:48:44;;;;;;;12.27;8.88;;;34.00;81.50;;;;;;5159618;27;20125;-72
2022/07/27 06:51:11;;;;;;;11.73;8.98;;;34.10;80.30;;;;;;5142592;27;20042;-72
2022/07/27 06:53:39;;;;;;;9.70;8.73;;;33.90;80.10;;;;;;5144285;27;20468;-72
2022/07/27 06:56:10;;;;;;;11.20;9.38;;;34.00;79.10;;;;;;5130227;27;20775;-72
2022/07/27 06:58:37;;;;;;;11.52;8.95;;;34.00;78.00;;;;;;5132612;27;20043;-72
2022/07/27 07:01:05;;;;;;;11.85;9.43;;;34.10;77.30;;;;;;5134020;27;20050;-72
2022/07/27 07:03:33;;;;;;;10.15;8.75;;;34.20;76.30;;;;;;5133446;27;20054;-72
2022/07/27 07:06:02;;;;;;;12.88;8.63;;;34.40;76.50;;;;;;5114934;27;20026;-72
2022/07/27 07:08:29;;;;;;;11.10;9.43;;;34.40;77.60;;;;;;5133576;27;20560;-71
2022/07/27 07:10:57;;;;;;;12.75;9.05;;;34.50;78.50;;;;;;5133123;27;20122;-72
2022/07/27 07:13:25;;;;;;;10.38;9.27;;;34.60;78.30;;;;;;5150715;27;20804;-71
2022/07/27 07:15:53;;;;;;;9.93;8.77;;;34.80;78.20;;;;;;5150052;27;20048;-72
2022/07/27 07:18:21;;;;;;;13.00;8.70;;;34.90;78.60;;;;;;5133185;27;20054;-72
2022/07/27 07:20:48;;;;;;;10.38;8.65;;;35.00;77.60;;;;;;5132146;27;20046;-73
2022/07/27 07:23:16;;;;;;;10.50;8.77;;;35.00;77.00;;;;;;5133231;27;20389;-72
2022/07/27 07:25:45;;;;;;;13.43;8.80;;;35.10;76.40;;;;;;5138304;27;20042;-72
2022/07/27 07:28:12;;;;;;;10.57;8.45;;;35.10;76.90;;;;;;5122518;27;20083;-72
2022/07/27 07:30:40;;;;;;;8.32;7.53;;;35.10;75.50;;;;;;5149810;27;20041;-73
2022/07/27 07:33:08;;;;;;;10.32;8.20;;;35.10;75.00;;;;;;5099044;27;20103;-73
2022/07/27 07:35:35;;;;;;;9.73;7.63;;;35.10;75.20;;;;;;5100917;27;20563;-72
2022/07/27 07:38:03;;;;;;;10.88;7.03;;;35.30;75.10;;;;;;5129711;27;20596;-72
2022/07/27 07:40:31;;;;;;;10.75;8.55;;;35.40;75.30;;;;;;5145190;27;20377;-73
2022/07/27 07:43:09;;;;;;;8.57;7.50;;;35.30;75.30;;;;;;5125918;27;20045;-73
2022/07/27 07:45:37;;;;;;;10.38;8.25;;;35.40;74.80;;;;;;5128056;27;20042;-73
2022/07/27 07:48:06;;;;;;;9.52;8.38;;;35.50;74.80;;;;;;5142438;27;20095;-73
2022/07/27 07:50:33;;;;;;;8.65;7.75;;;35.60;74.70;;;;;;5143715;27;20034;-73
2022/07/27 07:53:02;;;;;;;10.77;8.35;;;35.60;74.30;;;;;;5144715;27;20058;-73
2022/07/27 07:55:30;;;;;;;10.00;7.95;;;35.60;74.40;;;;;;5109194;27;20046;-73
2022/07/27 07:57:58;;;;;;;9.50;7.53;;;35.70;74.00;;;;;;5125752;27;20053;-74
2022/07/27 08:00:26;;;;;;;11.63;8.13;;;35.70;73.70;;;;;;5127172;27;20034;-73
2022/07/27 08:02:58;;;;;;;9.73;7.70;;;35.70;72.50;;;;;;5143337;27;20039;-73
2022/07/27 08:05:26;;;;;;;8.35;7.32;;;35.80;72.00;;;;;;5127681;27;20054;-73
2022/07/27 08:07:54;;;;;;;8.65;7.72;;;35.90;71.20;;;;;;5127241;27;20552;-72
2022/07/27 08:10:22;;;;;;;9.10;7.53;;;35.80;70.10;;;;;;5139094;27;20042;-73
2022/07/27 08:12:54;;;;;;;9.25;7.13;;;35.80;69.80;;;;;;5134822;27;20047;-72
2022/07/27 08:15:22;;;;;;;12.05;8.32;;;35.50;69.40;;;;;;5140880;27;20038;-72
2022/07/27 08:17:49;;;;;;;10.65;7.68;;;35.30;69.80;;;;;;5141096;27;20061;-73
2022/07/27 08:20:17;;;;;;;10.30;8.02;;;35.30;69.80;;;;;;5126924;27;20404;-73
2022/07/27 08:22:45;;;;;;;9.05;8.15;;;35.30;70.20;;;;;;5125183;27;20034;-73
2022/07/27 08:25:13;;;;;;;8.63;7.22;;;35.40;71.20;;;;;;5130166;27;20115;-73
2022/07/27 08:27:42;;;;;;;9.27;8.07;;;35.50;70.10;;;;;;5133448;27;20107;-72
2022/07/27 08:30:10;;;;;;;10.32;7.13;;;35.70;69.90;;;;;;5124369;27;20038;-73
2022/07/27 08:32:51;;;;;;;12.02;8.25;;;35.90;69.70;;;;;;5124809;27;20046;-73
2022/07/27 08:35:20;;;;;;;10.15;7.30;;;36.10;69.40;;;;;;5123719;27;20488;-73
2022/07/27 08:37:48;;;;;;;8.48;7.07;;;36.40;69.30;;;;;;5144375;27;20854;-73
2022/07/27 08:40:16;;;;;;;9.07;8.05;;;36.60;69.00;;;;;;5133459;27;20051;-71
2022/07/27 08:43:05;;;;;;;8.32;7.10;;;36.40;68.10;;;;;;5133288;27;20047;-72
2022/07/27 08:45:33;;;;;;;10.38;7.60;;;36.50;67.70;;;;;;5125107;27;20042;-73
2022/07/27 08:48:01;;;;;;;10.55;7.90;;;36.40;68.90;;;;;;5133101;27;20046;-72
2022/07/27 08:50:29;;;;;;;10.55;7.97;;;36.40;69.30;;;;;;5116599;27;20092;-73
2022/07/27 08:53:03;;;;;;;9.30;7.25;;;36.50;69.30;;;;;;5135078;27;20047;-72
2022/07/27 08:55:34;;;;;;;9.68;7.60;;;36.70;69.50;;;;;;5116897;27;20066;-73
2022/07/27 08:58:03;;;;;;;8.20;7.40;;;36.80;68.80;;;;;;5119991;27;20055;-73
2022/07/27 09:00:33;;;;;;;9.38;7.32;;;36.80;69.00;;;;;;5152661;27;20050;-73
2022/07/27 09:03:01;;;;;;;10.15;6.45;;;36.80;67.50;;;;;;5120304;27;20047;-72
2022/07/27 09:05:30;;;;;;;9.35;7.60;;;36.60;67.50;;;;;;5120306;27;20378;-73
2022/07/27 09:08:15;;;;;;;8.68;6.55;;;36.80;68.10;;;;;;5136425;27;20450;-73
2022/07/27 09:10:43;;;;;;;11.65;7.60;;;36.80;68.20;;;;;;5119659;27;20038;-73
2022/07/27 09:13:30;;;;;;;9.60;8.10;;;36.80;68.30;;;;;;5153659;27;20178;-73
2022/07/27 09:16:04;;;;;;;9.25;7.45;;;36.80;68.50;;;;;;5119434;27;20043;-73
2022/07/27 09:18:43;;;;;;;;;;;36.70;67.90;;;;;;5121642;27;20078;-73
2022/07/27 09:21:15;;;;;;;9.85;6.72;;;36.60;67.90;;;;;;5150632;27;20017;-73
2022/07/27 09:24:09;;;;;;;8.45;7.22;;;36.40;68.30;;;;;;5132815;27;20078;-71
2022/07/27 09:26:41;;;;;;;7.95;6.97;;;36.30;69.60;;;;;;5115374;27;20053;-72
2022/07/27 09:29:12;;;;;;;8.40;6.90;;;36.30;70.60;;;;;;5098848;27;20051;-72
2022/07/27 09:31:49;;;;;;;8.63;6.72;;;35.90;70.70;;;;;;5115594;27;20236;-71
2022/07/27 09:34:29;;;;;;;10.02;8.27;;;35.80;71.30;;;;;;5115765;27;20031;-71
2022/07/27 09:36:59;;;;;;;8.82;7.40;;;36.00;71.10;;;;;;5134055;27;20046;-71
2022/07/27 09:39:28;;;;;;;7.65;6.93;;;36.10;70.90;;;;;;5115969;27;20053;-72
2022/07/27 09:42:02;;;;;;;8.05;7.25;;;36.00;70.90;;;;;;5115528;27;20047;-71
2022/07/27 09:44:40;;;;;;;9.45;7.50;;;36.10;70.60;;;;;;5115696;27;20047;-71
2022/07/27 09:47:25;;;;;;;7.72;6.93;;;36.00;70.50;;;;;;5107419;27;20121;-72
2022/07/27 09:50:15;;;;;;;8.65;7.35;;;36.10;70.30;;;;;;5136170;27;20042;-71
2022/07/27 09:52:44;;;;;;;9.50;7.63;;;35.80;69.80;;;;;;5154007;27;20130;-72
2022/07/27 09:55:12;;;;;;;9.88;7.10;;;36.00;70.10;;;;;;5153127;27;20465;-72
2022/07/27 09:57:56;;;;;;;8.27;6.97;;;35.90;69.80;;;;;;5135938;27;20065;-72
2022/07/27 10:00:25;;;;;;;7.75;6.88;;;35.90;69.80;;;;;;5118873;27;20137;-72
2022/07/27 10:02:54;;;;;;;8.40;6.70;;;35.90;69.90;;;;;;5150246;27;20135;-73
2022/07/27 10:05:22;;;;;;;10.68;6.40;;;36.00;69.90;;;;;;5138871;27;20043;-73
2022/07/27 10:07:52;;;;;;;8.68;6.80;;;36.10;69.60;;;;;;5139631;27;20046;-72
2022/07/27 10:10:22;;;;;;;7.10;5.88;;;36.10;69.20;;;;;;5131080;27;20441;-73
2022/07/27 10:12:51;;;;;;;7.28;6.15;;;36.20;68.90;;;;;;5120744;27;20532;-72
2022/07/27 10:15:21;;;;;;;7.30;6.22;;;36.30;68.80;;;;;;5111401;27;20468;-72
2022/07/27 10:17:58;;;;;;;8.23;6.30;;;36.40;68.70;;;;;;5114074;27;20039;-73
2022/07/27 10:20:28;;;;;;;9.30;6.75;;;36.40;68.50;;;;;;5122870;27;20048;-73
2022/07/27 10:22:57;;;;;;;7.50;6.20;;;36.60;68.70;;;;;;5119843;27;20505;-73
2022/07/27 10:25:28;;;;;;;8.35;6.45;;;36.70;68.30;;;;;;5147847;27;20431;-72
2022/07/27 10:28:17;;;;;;;10.27;7.20;;;36.70;68.30;;;;;;5123103;27;20043;-73
2022/07/27 10:30:45;;;;;;;9.27;7.10;;;36.80;67.90;;;;;;5124649;27;20054;-73
2022/07/27 10:33:43;;;;;;;9.18;6.60;;;36.80;67.80;;;;;;5137315;27;20070;-72
2022/07/27 10:36:24;;;;;;;7.37;5.57;;;36.70;67.20;;;;;;5141575;27;20695;-72
2022/07/27 10:38:55;;;;;;;11.88;7.03;;;36.50;66.90;;;;;;5150884;27;20078;-72
2022/07/27 10:41:29;;;;;;;8.23;6.22;;;36.30;67.20;;;;;;5132654;27;20512;-72
2022/07/27 10:44:21;;;;;;;9.15;5.97;;;36.20;67.10;;;;;;5135029;27;20053;-72
2022/07/27 10:47:03;;;;;;;8.63;5.93;;;36.30;67.00;;;;;;5153068;27;20058;-72
2022/07/27 10:49:34;;;;;;;7.28;5.72;;;36.30;67.20;;;;;;5152330;27;20054;-73
2022/07/27 10:52:03;;;;;;;9.13;6.45;;;36.30;67.00;;;;;;5152254;27;20133;-73
2022/07/27 10:54:33;;;;;;;8.25;6.28;;;36.20;67.30;;;;;;5151999;27;20039;-72
2022/07/27 10:57:03;;;;;;;8.20;5.78;;;36.20;67.50;;;;;;5134950;27;20096;-72
2022/07/27 10:59:43;;;;;;;9.40;6.13;;;36.30;68.50;;;;;;5134541;27;20054;-73
2022/07/27 11:02:39;;;;;;;10.10;5.43;;;36.30;68.30;;;;;;5137862;27;20042;-73
2022/07/27 11:05:10;;;;;;;8.13;6.03;;;36.30;68.00;;;;;;5134445;27;20047;-72
2022/07/27 11:07:50;;;;;;;5.82;5.07;;;36.20;67.90;;;;;;5152902;27;20050;-73
2022/07/27 11:10:42;;;;;;;9.13;5.75;;;36.20;68.20;;;;;;5151467;27;20538;-72
2022/07/27 11:13:11;;;;;;;7.57;5.30;;;36.20;68.40;;;;;;5151692;27;20789;-73
2022/07/27 11:15:39;;;;;;;9.85;5.93;;;36.10;68.20;;;;;;5152453;27;20049;-72
2022/07/27 11:18:07;;;;;;;6.60;5.90;;;36.10;68.40;;;;;;5133987;27;20043;-73
2022/07/27 11:20:34;;;;;;;7.57;5.80;;;35.90;68.50;;;;;;5117085;27;20038;-72
2022/07/27 11:23:20;;;;;;;7.93;6.00;;;35.90;68.90;;;;;;5151580;27;20314;-73
2022/07/27 11:26:08;;;;;;;7.13;5.57;;;35.80;69.40;;;;;;5119075;27;20107;-73
2022/07/27 11:28:36;;;;;;;8.00;5.00;;;35.90;70.10;;;;;;5130322;27;20123;-73
2022/07/27 11:31:05;;;;;;;7.63;5.22;;;35.80;70.20;;;;;;5130463;27;20043;-73
2022/07/27 11:33:34;;;;;;;7.15;5.75;;;35.80;69.80;;;;;;5130647;27;20055;-73
2022/07/27 11:36:06;;;;;;;7.25;5.07;;;35.70;69.80;;;;;;5130290;27;20122;-73
2022/07/27 11:38:51;;;;;;;6.07;5.28;;;35.60;70.00;;;;;;5113195;27;20047;-73
2022/07/27 11:41:23;;;;;;;;;;;35.50;69.80;;;;;;5114087;27;20393;-72
2022/07/27 11:44:11;;;;;;;6.78;4.90;;;35.40;70.30;;;;;;5097686;27;19930;-73
2022/07/27 11:46:41;;;;;;;7.10;5.53;;;35.20;70.70;;;;;;5130293;27;20043;-72
2022/07/27 11:49:14;;;;;;;8.10;5.10;;;35.30;71.00;;;;;;5130108;27;20049;-72
2022/07/27 11:51:48;;;;;;;9.13;5.28;;;35.20;70.90;;;;;;5130503;27;20104;-73
2022/07/27 11:54:22;;;;;;;8.65;5.20;;;35.20;71.00;;;;;;5113573;27;20501;-72
2022/07/27 11:57:17;;;;;;;5.95;4.88;;;35.10;70.30;;;;;;5130355;27;20489;-72
2022/07/27 11:59:45;;;;;;;7.70;5.20;;;35.10;70.20;;;;;;5129865;27;20043;-73
2022/07/27 12:02:13;;;;;;;6.75;5.32;;;35.00;70.70;;;;;;5129918;27;20408;-72
2022/07/27 12:04:43;;;;;;;8.63;5.15;;;35.20;70.30;;;;;;5113147;28;20406;-72
2022/07/27 12:07:15;;;;;;;7.00;5.20;;;35.30;71.00;;;;;;5112954;28;20054;-72
2022/07/27 12:09:47;;;;;;;7.45;5.07;;;35.30;70.30;;;;;;5112957;28;20062;-73
2022/07/27 12:12:24;;;;;;;6.53;4.78;;;35.40;69.30;;;;;;5116283;27;20496;-73
2022/07/27 12:14:56;;;;;;;8.93;5.95;;;35.40;69.50;;;;;;5134501;27;20047;-73
2022/07/27 12:17:30;;;;;;;12.88;4.90;;;35.40;69.70;;;;;;5117581;27;20564;-73
2022/07/27 12:20:10;;;;;;;6.05;4.63;;;35.30;69.60;;;;;;5133967;27;20058;-73
2022/07/27 12:22:52;;;;;;;8.32;5.30;;;35.30;69.70;;;;;;5099867;27;20047;-72
2022/07/27 12:25:20;;;;;;;5.78;4.15;;;35.40;68.80;;;;;;5117324;27;20046;-72
2022/07/27 12:28:12;;;;;;;9.00;5.40;;;35.30;67.80;;;;;;5133816;27;20039;-72
2022/07/27 12:30:48;;;;;;;6.68;4.40;;;35.30;67.80;;;;;;5135072;27;20053;-72
2022/07/27 12:33:29;;;;;;;7.18;5.22;;;35.40;67.80;;;;;;5117269;27;20051;-73
2022/07/27 12:35:59;;;;;;;5.82;4.68;;;35.40;67.90;;;;;;5134013;27;20155;-73
2022/07/27 12:38:47;;;;;;;8.07;5.00;;;35.40;68.20;;;;;;5138096;27;20058;-72
2022/07/27 12:41:31;;;;;;;8.63;4.70;;;35.40;67.40;;;;;;5155623;27;20492;-72
2022/07/27 12:44:16;;;;;;;6.93;3.85;;;35.40;66.70;;;;;;5137365;27;20038;-72
2022/07/27 12:46:54;;;;;;;8.55;4.30;;;35.50;66.70;;;;;;5120540;27;20062;-73
2022/07/27 12:49:23;;;;;;;5.85;3.97;;;35.50;66.40;;;;;;5120369;27;20142;-72
2022/07/27 12:51:51;;;;;;;9.13;4.50;;;35.40;66.30;;;;;;5155006;27;20804;-73
2022/07/27 12:54:19;;;;;;;6.22;4.63;;;35.40;66.30;;;;;;5155484;27;20087;-72
2022/07/27 12:56:48;;;;;;;6.30;4.78;;;35.30;66.10;;;;;;5155323;27;20039;-73
2022/07/27 12:59:22;;;;;;;6.90;4.90;;;35.30;65.80;;;;;;5136911;27;20134;-72
2022/07/27 13:01:51;;;;;;;6.18;4.15;;;35.40;66.20;;;;;;5136811;27;20037;-72